Terminal Aerodrome Forecast
Issued by NWS

Home | Current Version | Previous Version | Graphics & Text | Print | Product List | Glossary On
Versions: 1 2 3 4 5 6 7 8 9 10 11 12 13 14 15 16 17 18 19 20 21 22 23
733
FTUS43 KGRB 231140
TAFAUW
TAF
KAUW 231140Z 2312/2412 17003KT 6SM BR SCT004 BKN090
      TEMPO 2312/2314 2SM BR BKN004
     FM231400 17004KT 6SM BR BKN100
     FM231600 22005KT P6SM OVC100
     FM232300 31006KT P6SM -RA OVC045
     FM240200 32007KT 6SM -RA OVC026
     FM240300 32012G21KT 4SM -RA OVC013=

USA.gov is the U.S. government's official web portal to all federal, state and local government web resources and services.